Time;durP1;ratioP1;P1;durP2;ratioP2;P2;SDS_P1;SDS_P2;PMS_P1;PMS_P2;Temp;Humidity;BMP_temperature;BMP_pressure;BME280_temperature;BME280_humidity;BME280_pressure;Samples;Min_cycle;Max_cycle;Signal;HPM_P1;HPM_P2
2021/09/06 00:00:04;;;;;;;24.90;21.30;;;18.10;94.50;;;;;;5072763;28;20960;-65
2021/09/06 00:02:31;;;;;;;8.23;7.43;;;18.10;94.70;;;;;;5073251;28;20968;-65
2021/09/06 00:04:58;;;;;;;10.60;9.60;;;18.10;94.80;;;;;;5072858;28;20911;-65
2021/09/06 00:07:25;;;;;;;12.73;11.43;;;18.00;94.70;;;;;;5073303;28;20463;-65
2021/09/06 00:09:57;;;;;;;9.97;8.37;;;18.10;94.90;;;;;;5071741;28;20960;-64
2021/09/06 00:12:24;;;;;;;9.47;6.77;;;18.00;94.90;;;;;;5073217;28;20462;-65
2021/09/06 00:14:51;;;;;;;6.43;5.83;;;18.00;94.80;;;;;;5072730;28;20459;-65
2021/09/06 00:17:19;;;;;;;11.40;10.20;;;18.00;94.80;;;;;;5072886;28;20481;-65
2021/09/06 00:19:46;;;;;;;9.73;7.60;;;17.90;94.90;;;;;;5073070;28;20477;-65
2021/09/06 00:22:13;;;;;;;10.17;8.60;;;17.90;95.00;;;;;;5072535;28;21013;-65
2021/09/06 00:24:40;;;;;;;11.93;10.03;;;17.90;95.10;;;;;;5072921;28;20466;-65
2021/09/06 00:27:07;;;;;;;14.60;13.03;;;17.80;95.10;;;;;;5072350;28;20462;-65
2021/09/06 00:29:33;;;;;;;14.63;9.70;;;17.80;95.10;;;;;;5072700;28;20470;-64
2021/09/06 00:32:03;;;;;;;13.13;11.50;;;17.80;95.20;;;;;;5072166;28;20478;-65
2021/09/06 00:34:32;;;;;;;16.80;12.90;;;17.80;95.20;;;;;;5073007;28;20485;-65
2021/09/06 00:36:58;;;;;;;13.40;11.07;;;17.80;95.20;;;;;;5072191;28;20811;-65
2021/09/06 00:39:25;;;;;;;14.53;12.90;;;17.80;95.20;;;;;;5072477;28;20455;-65
2021/09/06 00:41:52;;;;;;;17.10;15.30;;;17.70;95.10;;;;;;5072374;28;20469;-65
2021/09/06 00:44:19;;;;;;;12.97;11.43;;;17.70;95.30;;;;;;5072758;28;20472;-65
2021/09/06 00:46:47;;;;;;;10.90;9.00;;;17.70;95.40;;;;;;5072669;28;20462;-65
2021/09/06 00:49:18;;;;;;;17.37;14.63;;;17.60;95.40;;;;;;5072143;28;20600;-65
2021/09/06 00:51:47;;;;;;;16.77;13.77;;;17.60;95.50;;;;;;5072531;28;20831;-65
2021/09/06 00:54:14;;;;;;;14.90;12.73;;;17.60;95.60;;;;;;5072176;28;20454;-64
2021/09/06 00:56:42;;;;;;;10.50;8.37;;;17.60;95.60;;;;;;5072735;28;20567;-64
2021/09/06 00:59:09;;;;;;;11.23;9.30;;;17.60;95.90;;;;;;5072029;28;20470;-64
2021/09/06 01:01:36;;;;;;;12.97;10.80;;;17.60;95.50;;;;;;5072487;28;20459;-64
2021/09/06 01:04:03;;;;;;;11.70;10.50;;;17.60;95.50;;;;;;5072022;28;20473;-64
2021/09/06 01:06:30;;;;;;;10.10;7.70;;;17.60;95.60;;;;;;5072469;28;20952;-64
2021/09/06 01:08:58;;;;;;;13.50;12.10;;;17.50;95.50;;;;;;5071992;28;20478;-64
2021/09/06 01:11:25;;;;;;;19.80;14.47;;;17.50;95.60;;;;;;5072534;28;20459;-64
2021/09/06 01:13:52;;;;;;;19.47;14.60;;;17.50;95.60;;;;;;5071896;28;20474;-64
2021/09/06 01:16:20;;;;;;;10.97;9.60;;;17.50;95.70;;;;;;5072481;28;20463;-65
2021/09/06 01:18:46;;;;;;;8.97;7.90;;;17.50;95.70;;;;;;5072438;28;20466;-64
2021/09/06 01:21:15;;;;;;;14.97;13.47;;;17.50;95.70;;;;;;5071845;28;20468;-64
2021/09/06 01:23:42;;;;;;;8.47;7.67;;;17.50;95.70;;;;;;5076322;28;20462;-63
2021/09/06 01:26:11;;;;;;;14.77;12.53;;;17.50;95.70;;;;;;5076076;28;20458;-63
2021/09/06 01:28:38;;;;;;;8.47;7.67;;;17.50;95.80;;;;;;5076283;28;20482;-65
2021/09/06 01:31:05;;;;;;;8.80;7.90;;;17.40;95.70;;;;;;5075723;28;20793;-65
2021/09/06 01:33:32;;;;;;;13.90;12.50;;;17.40;95.70;;;;;;5076257;28;20484;-65
2021/09/06 01:35:59;;;;;;;13.57;10.03;;;17.40;95.80;;;;;;5075584;28;20470;-65
2021/09/06 01:38:25;;;;;;;15.63;14.03;;;17.40;95.80;;;;;;5076175;28;20465;-65
2021/09/06 01:40:53;;;;;;;11.90;9.57;;;17.40;95.90;;;;;;5075959;28;20470;-65
2021/09/06 01:43:21;;;;;;;12.13;9.80;;;17.40;95.90;;;;;;5075687;28;20811;-64
2021/09/06 01:45:48;;;;;;;18.43;14.87;;;17.40;95.90;;;;;;5075902;28;20474;-65
2021/09/06 01:48:14;;;;;;;13.90;11.83;;;17.40;96.00;;;;;;5075330;28;20484;-65
2021/09/06 01:50:41;;;;;;;14.57;12.87;;;17.30;95.80;;;;;;5075823;28;20472;-65
2021/09/06 01:53:08;;;;;;;13.27;11.80;;;17.30;95.90;;;;;;5075407;28;20990;-65
2021/09/06 01:55:35;;;;;;;9.00;7.53;;;17.20;96.00;;;;;;5075736;28;20458;-64
2021/09/06 01:58:02;;;;;;;7.73;6.93;;;17.30;96.00;;;;;;5075127;28;20807;-64
2021/09/06 02:00:30;;;;;;;11.90;8.43;;;17.30;96.00;;;;;;5075665;28;20472;-65
2021/09/06 02:02:57;;;;;;;7.93;7.13;;;17.20;96.00;;;;;;5075222;28;20480;-65
2021/09/06 02:05:24;;;;;;;6.50;5.50;;;17.30;96.00;;;;;;5075254;28;20466;-65
2021/09/06 02:07:52;;;;;;;9.13;8.13;;;17.30;96.00;;;;;;5075546;28;20468;-64
2021/09/06 02:10:19;;;;;;;12.40;10.73;;;17.30;96.00;;;;;;5074672;28;20449;-65
2021/09/06 02:12:46;;;;;;;5.97;5.37;;;17.30;96.00;;;;;;5075611;28;20808;-65
2021/09/06 02:15:12;;;;;;;5.73;5.10;;;17.30;96.00;;;;;;5075222;28;20808;-65
2021/09/06 02:17:41;;;;;;;9.90;8.30;;;17.20;96.10;;;;;;5075315;28;20467;-64
2021/09/06 02:20:08;;;;;;;14.40;12.80;;;17.20;96.10;;;;;;5074817;28;20477;-65
2021/09/06 02:22:35;;;;;;;11.33;9.27;;;17.20;96.10;;;;;;5075150;28;20470;-65
2021/09/06 02:25:02;;;;;;;7.50;6.60;;;17.20;96.20;;;;;;5074945;28;20466;-65
2021/09/06 02:27:29;;;;;;;7.80;7.03;;;17.20;96.20;;;;;;5075276;28;20472;-65
2021/09/06 02:29:56;;;;;;;10.93;9.80;;;17.20;96.20;;;;;;5074827;28;20492;-64
2021/09/06 02:32:23;;;;;;;14.73;8.30;;;17.10;96.20;;;;;;5074500;28;20469;-64
2021/09/06 02:34:52;;;;;;;8.73;7.83;;;17.10;96.30;;;;;;5074077;28;20462;-64
2021/09/06 02:37:19;;;;;;;6.20;4.73;;;17.10;96.30;;;;;;5074285;28;20459;-64
2021/09/06 02:39:45;;;;;;;5.03;4.53;;;17.10;96.30;;;;;;5074806;28;20476;-65
2021/09/06 02:42:12;;;;;;;4.90;3.80;;;17.10;96.30;;;;;;5074392;28;20468;-65
2021/09/06 02:44:39;;;;;;;4.20;3.80;;;17.10;96.40;;;;;;5074766;28;20466;-65
2021/09/06 02:47:06;;;;;;;5.13;4.00;;;17.10;96.50;;;;;;5074352;28;20462;-65
2021/09/06 02:49:33;;;;;;;4.00;3.70;;;17.00;96.50;;;;;;5074755;28;20477;-65
2021/09/06 02:52:01;;;;;;;5.23;4.73;;;17.00;96.50;;;;;;5074669;28;20472;-65
2021/09/06 02:54:28;;;;;;;4.10;3.53;;;17.00;96.60;;;;;;5074472;28;21562;-64
2021/09/06 02:56:55;;;;;;;3.60;3.30;;;17.00;96.60;;;;;;5074790;28;20467;-64
2021/09/06 02:59:21;;;;;;;4.23;3.83;;;17.00;96.70;;;;;;5073956;28;20474;-65
2021/09/06 03:01:48;;;;;;;9.83;8.83;;;17.00;96.80;;;;;;5074585;28;20466;-65
2021/09/06 03:04:15;;;;;;;7.30;6.10;;;16.90;96.80;;;;;;5074221;28;20476;-66
2021/09/06 03:06:42;;;;;;;5.00;4.50;;;16.90;96.80;;;;;;5074322;28;20824;-65
2021/09/06 03:09:10;;;;;;;4.93;4.33;;;16.90;96.80;;;;;;5074027;28;20474;-64
2021/09/06 03:11:38;;;;;;;4.20;3.80;;;16.90;97.00;;;;;;5074166;28;20473;-64
2021/09/06 03:14:05;;;;;;;4.80;4.23;;;16.80;96.90;;;;;;5073775;28;20470;-64
2021/09/06 03:16:31;;;;;;;4.20;3.83;;;16.80;96.90;;;;;;5074379;28;20462;-64
2021/09/06 03:18:58;;;;;;;4.83;4.27;;;16.80;96.90;;;;;;5073998;28;20493;-64
2021/09/06 03:21:25;;;;;;;4.70;3.87;;;16.80;97.00;;;;;;5073607;28;20936;-65
2021/09/06 03:23:54;;;;;;;4.97;3.67;;;16.80;97.10;;;;;;5074189;28;20810;-64
2021/09/06 03:26:22;;;;;;;7.43;4.20;;;16.80;97.10;;;;;;5073586;28;20490;-65
2021/09/06 03:28:49;;;;;;;6.43;4.17;;;16.70;97.10;;;;;;5073886;28;20475;-65
2021/09/06 03:31:16;;;;;;;5.20;4.03;;;16.70;97.20;;;;;;5073393;28;20812;-64
2021/09/06 03:33:43;;;;;;;5.87;5.30;;;16.70;97.20;;;;;;5073960;28;21003;-64
2021/09/06 03:36:10;;;;;;;4.87;4.03;;;16.70;97.30;;;;;;5073208;28;20470;-65
2021/09/06 03:38:37;;;;;;;6.90;6.20;;;16.70;97.30;;;;;;5073976;28;20470;-64
2021/09/06 03:41:04;;;;;;;6.20;5.50;;;16.70;97.10;;;;;;5073857;28;20469;-65
2021/09/06 03:43:32;;;;;;;4.87;4.47;;;16.70;97.30;;;;;;5073192;28;20796;-64
2021/09/06 03:45:59;;;;;;;4.80;4.00;;;16.60;97.30;;;;;;5073553;28;20466;-65
2021/09/06 03:48:26;;;;;;;3.70;3.37;;;16.60;97.40;;;;;;5072985;28;20581;-64
2021/09/06 03:50:53;;;;;;;5.43;4.30;;;16.60;97.50;;;;;;5073636;28;20471;-64
2021/09/06 03:53:20;;;;;;;6.30;5.67;;;16.60;97.50;;;;;;5073152;28;20466;-64
2021/09/06 03:55:46;;;;;;;5.80;5.10;;;16.50;97.50;;;;;;5073580;28;20466;-64
2021/09/06 03:58:13;;;;;;;5.00;4.50;;;16.50;97.50;;;;;;5072809;28;20976;-64
2021/09/06 04:00:42;;;;;;;4.33;3.77;;;16.50;97.50;;;;;;5073342;28;20836;-65
2021/09/06 04:03:09;;;;;;;4.53;4.13;;;16.50;97.60;;;;;;5072960;28;20470;-64
2021/09/06 04:05:36;;;;;;;4.40;4.00;;;16.50;97.60;;;;;;5073247;28;20458;-64
2021/09/06 04:08:03;;;;;;;5.00;4.33;;;16.40;97.70;;;;;;5073194;28;21139;-64
2021/09/06 04:10:30;;;;;;;6.00;5.13;;;16.40;97.80;;;;;;5072523;28;20820;-65
2021/09/06 04:12:57;;;;;;;5.97;5.47;;;16.40;97.70;;;;;;5073124;28;20479;-65
2021/09/06 04:15:23;;;;;;;6.90;5.20;;;16.40;97.80;;;;;;5072768;28;20482;-65
2021/09/06 04:17:52;;;;;;;8.53;7.73;;;16.40;97.90;;;;;;5073230;28;20470;-65
2021/09/06 04:20:18;;;;;;;7.57;5.47;;;16.30;97.90;;;;;;5072456;28;20474;-65
2021/09/06 04:22:45;;;;;;;6.47;5.60;;;16.30;98.00;;;;;;5073029;28;20473;-64
2021/09/06 04:25:12;;;;;;;5.80;5.30;;;16.30;98.10;;;;;;5072566;28;20537;-65
2021/09/06 04:27:39;;;;;;;4.80;4.40;;;16.30;98.10;;;;;;5073015;28;20478;-65
2021/09/06 04:30:07;;;;;;;5.80;5.20;;;16.30;98.10;;;;;;5072716;28;20484;-64
2021/09/06 04:32:33;;;;;;;6.70;6.00;;;16.20;98.10;;;;;;5072353;28;20468;-64
2021/09/06 04:35:02;;;;;;;5.83;5.20;;;16.20;98.10;;;;;;5073033;28;20466;-65
2021/09/06 04:37:28;;;;;;;6.13;4.60;;;16.20;98.20;;;;;;5072165;28;20470;-65
2021/09/06 04:39:55;;;;;;;5.00;4.40;;;16.20;98.20;;;;;;5072711;28;20473;-65
2021/09/06 04:42:22;;;;;;;5.30;4.90;;;16.10;98.30;;;;;;5072412;28;20474;-65
2021/09/06 04:44:49;;;;;;;4.90;4.50;;;16.20;98.40;;;;;;5072849;28;20483;-65
2021/09/06 04:47:16;;;;;;;6.40;5.37;;;16.10;98.30;;;;;;5072186;28;20967;-63
2021/09/06 04:49:43;;;;;;;5.73;5.13;;;16.20;98.40;;;;;;5072528;28;20474;-64
2021/09/06 04:52:12;;;;;;;8.30;5.53;;;16.10;98.40;;;;;;5072462;28;20462;-63
2021/09/06 04:54:39;;;;;;;5.80;5.10;;;16.10;98.40;;;;;;5072287;28;21118;-65
2021/09/06 04:57:06;;;;;;;5.03;4.53;;;16.20;98.50;;;;;;5071980;28;20473;-64
2021/09/06 04:59:32;;;;;;;4.93;4.13;;;16.20;98.50;;;;;;5071874;28;20483;-64
2021/09/06 05:01:59;;;;;;;10.30;5.13;;;16.20;98.50;;;;;;5072692;28;20463;-64
2021/09/06 05:04:26;;;;;;;6.83;6.13;;;16.10;98.50;;;;;;5071593;28;20484;-64
2021/09/06 05:06:54;;;;;;;6.37;5.70;;;16.10;98.50;;;;;;5071545;28;20801;-64
2021/09/06 05:09:25;;;;;;;9.53;6.20;;;16.10;98.50;;;;;;5071134;28;20990;-64
2021/09/06 05:11:52;;;;;;;9.43;6.77;;;16.10;98.50;;;;;;5071248;28;20481;-64
2021/09/06 05:14:19;;;;;;;7.07;4.80;;;16.10;98.50;;;;;;5071262;28;20473;-64
2021/09/06 05:16:46;;;;;;;6.30;4.90;;;16.10;98.60;;;;;;5072646;28;20799;-65
2021/09/06 05:19:13;;;;;;;6.97;6.27;;;16.20;98.70;;;;;;5072378;28;20807;-65
2021/09/06 05:21:40;;;;;;;9.90;6.17;;;16.20;98.50;;;;;;5071869;28;20469;-65
2021/09/06 05:24:07;;;;;;;6.77;5.33;;;16.10;98.50;;;;;;5072451;28;20469;-65
2021/09/06 05:26:35;;;;;;;6.43;5.77;;;16.10;98.60;;;;;;5071741;28;20468;-64
2021/09/06 05:29:02;;;;;;;5.63;4.73;;;16.10;98.60;;;;;;5072324;28;20466;-64
2021/09/06 05:31:29;;;;;;;6.93;6.20;;;16.20;98.70;;;;;;5071831;28;20555;-64
2021/09/06 05:33:55;;;;;;;7.80;6.70;;;16.20;98.80;;;;;;5072329;28;20473;-64
2021/09/06 05:36:22;;;;;;;8.37;6.93;;;16.10;98.80;;;;;;5071728;28;20476;-64
2021/09/06 05:38:49;;;;;;;6.83;5.60;;;16.10;98.90;;;;;;5072170;28;20463;-64
2021/09/06 05:41:19;;;;;;;6.90;6.10;;;16.10;98.90;;;;;;5072094;28;20469;-64
2021/09/06 05:43:48;;;;;;;8.30;5.87;;;16.10;98.90;;;;;;5072167;28;20467;-64
2021/09/06 05:46:14;;;;;;;8.30;6.63;;;16.10;98.90;;;;;;5071913;28;20472;-65
2021/09/06 05:48:41;;;;;;;6.60;6.00;;;16.10;98.80;;;;;;5071472;28;20471;-65
2021/09/06 05:51:08;;;;;;;7.67;6.87;;;16.10;98.90;;;;;;5071959;28;20488;-65
2021/09/06 05:53:35;;;;;;;8.67;6.00;;;16.10;98.90;;;;;;5071439;28;20480;-65
2021/09/06 05:56:02;;;;;;;10.80;6.77;;;16.20;99.00;;;;;;5071879;28;21029;-65
2021/09/06 05:58:29;;;;;;;10.33;6.00;;;16.20;99.00;;;;;;5070937;28;20480;-65
2021/09/06 06:00:57;;;;;;;10.23;6.93;;;16.20;98.90;;;;;;5071869;28;20537;-65
2021/09/06 06:03:24;;;;;;;7.07;5.43;;;16.20;98.90;;;;;;5071598;28;20470;-65
2021/09/06 06:05:51;;;;;;;25.47;8.80;;;16.30;98.90;;;;;;5071922;28;20961;-65
2021/09/06 06:08:17;;;;;;;28.93;7.83;;;16.30;98.90;;;;;;5072032;28;20472;-65
2021/09/06 06:10:46;;;;;;;9.80;5.80;;;16.30;98.90;;;;;;5075062;28;20458;-63
2021/09/06 06:13:13;;;;;;;11.93;5.60;;;16.30;98.80;;;;;;5075591;28;20469;-63
2021/09/06 06:15:40;;;;;;;14.43;6.53;;;16.40;98.80;;;;;;5074874;28;20866;-63
2021/09/06 06:18:08;;;;;;;12.03;7.10;;;16.40;98.80;;;;;;5075289;28;20542;-64
2021/09/06 06:20:35;;;;;;;12.70;6.37;;;16.50;98.90;;;;;;5074863;28;20466;-64
2021/09/06 06:23:02;;;;;;;13.63;6.30;;;16.50;98.90;;;;;;5075275;28;20784;-65
2021/09/06 06:25:29;;;;;;;12.03;6.00;;;16.60;98.90;;;;;;5074795;28;20480;-65
2021/09/06 06:27:56;;;;;;;8.20;5.60;;;16.60;98.80;;;;;;5075054;28;20455;-64
2021/09/06 06:30:26;;;;;;;13.53;6.97;;;16.60;98.70;;;;;;5075260;28;20477;-65
2021/09/06 06:32:53;;;;;;;9.10;6.67;;;16.70;98.70;;;;;;5074600;28;21268;-64
2021/09/06 06:35:21;;;;;;;7.03;4.87;;;16.70;98.50;;;;;;5075046;28;20467;-64
2021/09/06 06:37:48;;;;;;;7.37;5.03;;;16.80;98.50;;;;;;5074804;28;20462;-64
2021/09/06 06:40:15;;;;;;;6.07;5.17;;;16.80;98.40;;;;;;5075060;28;20476;-64
2021/09/06 06:42:42;;;;;;;5.63;5.00;;;16.80;98.30;;;;;;5074451;28;20472;-64
2021/09/06 06:45:10;;;;;;;9.37;6.80;;;16.90;98.30;;;;;;5074789;28;20470;-64
2021/09/06 06:47:37;;;;;;;6.77;6.17;;;16.90;98.30;;;;;;5074471;28;20976;-64
2021/09/06 06:50:04;;;;;;;6.20;5.60;;;17.00;98.20;;;;;;5074516;28;20481;-64
2021/09/06 06:52:32;;;;;;;5.30;4.63;;;17.10;98.20;;;;;;5074015;28;20469;-64
2021/09/06 06:54:59;;;;;;;5.63;4.93;;;17.10;98.10;;;;;;5074524;28;20477;-64
2021/09/06 06:57:26;;;;;;;8.10;6.70;;;17.10;98.10;;;;;;5074661;28;20485;-64
2021/09/06 06:59:53;;;;;;;7.10;6.40;;;17.20;98.10;;;;;;5074056;28;20793;-64
2021/09/06 07:02:21;;;;;;;8.17;7.00;;;17.20;98.00;;;;;;5074459;28;20466;-64
2021/09/06 07:04:48;;;;;;;12.90;8.93;;;17.30;98.10;;;;;;5074001;28;20535;-64
2021/09/06 07:07:14;;;;;;;9.43;8.63;;;17.40;98.20;;;;;;5074237;28;20996;-64
2021/09/06 07:09:43;;;;;;;9.20;8.30;;;17.40;98.10;;;;;;5074038;28;20473;-64
2021/09/06 07:12:10;;;;;;;8.57;7.33;;;17.50;97.90;;;;;;5074190;28;20484;-64
2021/09/06 07:14:37;;;;;;;7.00;6.33;;;17.50;97.70;;;;;;5073774;28;20466;-65
2021/09/06 07:17:04;;;;;;;9.77;7.43;;;17.50;97.70;;;;;;5074269;28;20966;-64
2021/09/06 07:19:31;;;;;;;7.83;6.83;;;17.50;97.70;;;;;;5073502;28;20481;-64
2021/09/06 07:21:57;;;;;;;7.23;6.47;;;17.50;97.70;;;;;;5073746;28;20456;-65
2021/09/06 07:24:24;;;;;;;10.83;6.97;;;17.60;97.70;;;;;;5074050;28;20492;-65
2021/09/06 07:26:52;;;;;;;9.23;6.37;;;17.70;97.70;;;;;;5073619;28;20489;-65
2021/09/06 07:29:19;;;;;;;8.17;7.30;;;17.70;97.60;;;;;;5073897;28;20473;-65
2021/09/06 07:31:46;;;;;;;6.60;5.90;;;17.80;97.60;;;;;;5073264;28;20478;-65
2021/09/06 07:34:13;;;;;;;7.47;6.73;;;17.80;97.50;;;;;;5073881;28;20466;-64
2021/09/06 07:36:40;;;;;;;6.60;6.00;;;17.90;97.50;;;;;;5073306;28;20470;-65
2021/09/06 07:39:07;;;;;;;7.10;6.43;;;17.90;97.30;;;;;;5073548;28;20458;-65
2021/09/06 07:41:33;;;;;;;11.93;7.13;;;18.00;97.30;;;;;;5073727;28;20550;-65
2021/09/06 07:44:02;;;;;;;10.77;6.87;;;18.00;97.30;;;;;;5073501;28;20460;-65
2021/09/06 07:46:28;;;;;;;11.13;7.27;;;18.10;97.30;;;;;;5073698;28;20467;-65
2021/09/06 07:48:55;;;;;;;14.77;8.47;;;18.10;97.50;;;;;;5073135;28;20820;-63
2021/09/06 07:51:22;;;;;;;8.13;6.50;;;18.20;97.70;;;;;;5073386;28;20458;-64
2021/09/06 07:53:49;;;;;;;7.37;6.70;;;18.20;97.70;;;;;;5073091;28;20478;-64
2021/09/06 07:56:16;;;;;;;7.60;6.87;;;18.20;97.70;;;;;;5073508;28;20462;-65
2021/09/06 07:58:43;;;;;;;7.70;6.50;;;18.30;97.70;;;;;;5073080;28;20804;-64
2021/09/06 08:01:11;;;;;;;8.60;6.27;;;18.40;97.90;;;;;;5073165;28;20468;-64
2021/09/06 08:03:38;;;;;;;9.00;6.50;;;18.40;97.50;;;;;;5072948;28;20466;-64
2021/09/06 08:06:05;;;;;;;7.37;6.03;;;18.50;97.30;;;;;;5073335;28;20803;-64
2021/09/06 08:08:31;;;;;;;6.90;6.20;;;18.50;97.20;;;;;;5073314;28;20466;-63
2021/09/06 08:10:58;;;;;;;6.80;5.83;;;18.60;97.30;;;;;;5072761;28;20481;-64
2021/09/06 08:13:25;;;;;;;7.10;5.90;;;18.60;97.40;;;;;;5073018;28;20462;-64
2021/09/06 08:15:52;;;;;;;10.93;6.23;;;18.70;97.40;;;;;;5072664;28;20466;-64
2021/09/06 08:18:20;;;;;;;6.20;5.53;;;18.70;97.30;;;;;;5073265;28;20797;-64
2021/09/06 08:20:47;;;;;;;7.50;5.60;;;18.80;97.20;;;;;;5072547;28;20473;-64
2021/09/06 08:23:14;;;;;;;8.03;6.50;;;18.80;97.10;;;;;;5072958;28;20454;-64
2021/09/06 08:25:41;;;;;;;5.93;5.33;;;18.90;97.10;;;;;;5072643;28;20462;-64
2021/09/06 08:28:07;;;;;;;12.17;6.00;;;18.90;97.30;;;;;;5072966;28;20462;-64
2021/09/06 08:30:34;;;;;;;8.47;7.67;;;19.00;97.30;;;;;;5072541;28;20469;-64
2021/09/06 08:33:02;;;;;;;10.20;8.00;;;19.00;97.30;;;;;;5071822;28;20454;-64
2021/09/06 08:35:30;;;;;;;20.27;7.67;;;19.00;97.40;;;;;;5072588;28;20477;-64
2021/09/06 08:37:58;;;;;;;8.00;7.20;;;19.10;97.30;;;;;;5072148;28;20458;-64
2021/09/06 08:40:25;;;;;;;9.20;6.00;;;19.20;97.20;;;;;;5072794;28;20476;-64
2021/09/06 08:42:52;;;;;;;11.07;5.93;;;19.20;96.70;;;;;;5072193;28;20477;-64
2021/09/06 08:45:19;;;;;;;9.80;7.90;;;19.30;96.70;;;;;;5072866;28;20463;-64
2021/09/06 08:47:46;;;;;;;10.23;7.77;;;19.30;96.70;;;;;;5072214;28;20545;-64
2021/09/06 08:50:14;;;;;;;16.23;8.17;;;19.40;96.70;;;;;;5072452;28;20468;-64
2021/09/06 08:52:43;;;;;;;8.20;6.53;;;19.40;96.40;;;;;;5072172;28;21002;-64
2021/09/06 08:55:10;;;;;;;6.87;5.67;;;19.50;96.50;;;;;;5072535;28;20458;-64
2021/09/06 08:57:37;;;;;;;9.50;7.30;;;19.50;96.50;;;;;;5072582;28;20470;-64
2021/09/06 09:00:05;;;;;;;11.63;7.80;;;19.50;97.00;;;;;;5072153;28;20469;-64
2021/09/06 09:02:34;;;;;;;6.67;5.07;;;19.60;97.10;;;;;;5072773;28;20497;-64
2021/09/06 09:05:03;;;;;;;7.40;6.40;;;19.70;97.10;;;;;;5071900;28;20869;-64
2021/09/06 09:07:31;;;;;;;9.83;7.33;;;19.70;97.10;;;;;;5072537;28;20537;-64
2021/09/06 09:09:59;;;;;;;6.83;6.23;;;19.70;97.10;;;;;;5072050;28;20473;-64
2021/09/06 09:12:26;;;;;;;5.87;5.30;;;19.80;97.20;;;;;;5072316;28;20988;-64
2021/09/06 09:14:55;;;;;;;6.07;5.57;;;19.80;97.20;;;;;;5072071;28;20462;-64
2021/09/06 09:17:23;;;;;;;9.93;6.27;;;19.90;97.20;;;;;;5072395;28;20484;-64
2021/09/06 09:19:50;;;;;;;8.10;6.83;;;20.00;97.20;;;;;;5071783;28;20790;-64
2021/09/06 09:22:20;;;;;;;7.50;6.60;;;20.00;96.90;;;;;;5072341;28;20493;-64
2021/09/06 09:24:57;;;;;;;13.17;7.67;;;20.10;96.60;;;;;;5072010;28;20867;-64
2021/09/06 09:27:32;;;;;;;8.57;6.27;;;20.10;96.50;;;;;;5072286;28;20553;-64
2021/09/06 09:29:59;;;;;;;12.57;8.07;;;20.20;96.50;;;;;;5071632;28;20470;-64
2021/09/06 09:32:26;;;;;;;14.00;7.00;;;20.20;96.30;;;;;;5072161;28;20974;-64
2021/09/06 09:34:54;;;;;;;8.60;6.50;;;20.30;96.00;;;;;;5071800;28;20957;-64
2021/09/06 09:37:25;;;;;;;10.90;7.37;;;20.30;96.10;;;;;;5072078;28;20462;-64
2021/09/06 09:39:55;;;;;;;7.10;6.40;;;20.40;96.40;;;;;;5071791;28;20549;-64
2021/09/06 09:42:22;;;;;;;10.43;7.13;;;20.40;96.60;;;;;;5072588;28;20458;-64
2021/09/06 09:44:53;;;;;;;10.10;6.83;;;20.50;96.90;;;;;;5075327;28;20465;-64
2021/09/06 09:47:22;;;;;;;10.43;7.37;;;20.50;96.50;;;;;;5075707;28;20462;-64
2021/09/06 09:49:49;;;;;;;9.30;8.13;;;20.60;96.20;;;;;;5075215;28;20556;-64
2021/09/06 09:52:17;;;;;;;7.33;6.73;;;20.60;96.30;;;;;;5075600;28;20561;-64
2021/09/06 09:54:44;;;;;;;9.53;6.50;;;20.60;96.20;;;;;;5075798;28;20462;-64
2021/09/06 09:57:13;;;;;;;6.97;5.70;;;20.70;96.00;;;;;;5075536;28;20458;-64
2021/09/06 09:59:41;;;;;;;9.50;7.00;;;20.70;96.00;;;;;;5075482;28;20709;-64
2021/09/06 10:02:12;;;;;;;8.63;7.57;;;20.70;96.10;;;;;;5075337;28;20537;-64
2021/09/06 10:04:44;;;;;;;9.00;8.10;;;20.80;96.30;;;;;;5075859;28;20465;-64
2021/09/06 10:07:12;;;;;;;8.00;7.20;;;20.80;96.50;;;;;;5075364;28;20466;-64
2021/09/06 10:09:43;;;;;;;8.40;7.53;;;20.80;96.30;;;;;;5075011;28;20481;-64
2021/09/06 10:12:12;;;;;;;9.20;8.07;;;20.90;96.20;;;;;;5075458;28;20466;-64
2021/09/06 10:14:49;;;;;;;7.10;6.40;;;20.90;96.00;;;;;;5074847;28;20473;-64
2021/09/06 10:17:18;;;;;;;7.27;6.57;;;21.00;95.80;;;;;;5075261;28;20960;-64
2021/09/06 10:19:49;;;;;;;11.43;8.67;;;21.00;95.80;;;;;;5075092;28;20902;-65
2021/09/06 10:22:23;;;;;;;10.17;8.40;;;21.00;95.80;;;;;;5075379;28;20547;-65
2021/09/06 10:24:57;;;;;;;8.10;7.20;;;21.10;95.80;;;;;;5074801;28;20462;-65
2021/09/06 10:27:25;;;;;;;11.57;8.60;;;21.20;95.70;;;;;;5075260;28;20468;-65
2021/09/06 10:30:00;;;;;;;9.27;6.83;;;21.20;95.40;;;;;;5075055;28;20910;-64
2021/09/06 10:32:37;;;;;;;8.50;7.57;;;21.30;95.70;;;;;;5074893;28;20485;-64
2021/09/06 10:35:05;;;;;;;9.80;6.90;;;21.40;95.40;;;;;;5075427;28;20458;-65
2021/09/06 10:37:35;;;;;;;8.03;7.10;;;21.50;95.30;;;;;;5074556;28;20458;-65
2021/09/06 10:40:03;;;;;;;9.23;6.87;;;21.60;95.30;;;;;;5075079;28;20969;-65
2021/09/06 10:42:32;;;;;;;7.20;6.40;;;21.60;95.30;;;;;;5074276;28;20458;-65
2021/09/06 10:45:00;;;;;;;10.67;7.93;;;21.60;95.10;;;;;;5074963;28;21234;-64
2021/09/06 10:47:34;;;;;;;13.00;9.37;;;21.70;95.20;;;;;;5074367;28;20469;-64
2021/09/06 10:50:12;;;;;;;11.77;7.90;;;21.70;94.90;;;;;;5074686;28;20466;-64
2021/09/06 10:52:41;;;;;;;8.50;7.60;;;21.70;94.70;;;;;;5074468;28;21287;-64
2021/09/06 10:55:09;;;;;;;8.70;7.80;;;21.70;94.80;;;;;;5073825;28;20948;-65
2021/09/06 10:57:37;;;;;;;8.30;7.50;;;21.80;94.70;;;;;;5074320;28;20797;-64
2021/09/06 11:00:05;;;;;;;8.83;7.90;;;21.90;95.10;;;;;;5074449;28;20968;-65
2021/09/06 11:02:32;;;;;;;8.03;7.33;;;21.90;95.30;;;;;;5074009;28;20982;-64
2021/09/06 11:04:59;;;;;;;8.53;7.07;;;21.90;95.10;;;;;;5074695;28;20472;-65
2021/09/06 11:07:27;;;;;;;7.67;7.07;;;22.00;95.10;;;;;;5073814;28;20476;-64
2021/09/06 11:09:54;;;;;;;7.83;7.20;;;22.00;95.40;;;;;;5074511;28;20476;-65
2021/09/06 11:12:21;;;;;;;8.33;7.50;;;22.10;95.70;;;;;;5073804;28;20545;-65
2021/09/06 11:14:49;;;;;;;8.87;8.07;;;22.00;95.70;;;;;;5074313;28;20470;-65
2021/09/06 11:17:17;;;;;;;7.97;7.27;;;22.10;95.90;;;;;;5074157;28;20548;-65
2021/09/06 11:19:44;;;;;;;9.53;8.63;;;22.10;95.50;;;;;;5074058;28;20932;-65
2021/09/06 11:22:15;;;;;;;12.20;8.70;;;22.10;95.70;;;;;;5074029;28;20475;-65
2021/09/06 11:24:44;;;;;;;9.17;8.27;;;22.20;95.70;;;;;;5073622;28;20465;-65
2021/09/06 11:27:24;;;;;;;9.00;8.20;;;22.20;95.70;;;;;;5074172;28;20546;-65
2021/09/06 11:29:50;;;;;;;10.77;8.50;;;22.30;95.50;;;;;;5073730;28;20521;-65
2021/09/06 11:32:17;;;;;;;8.50;7.70;;;22.30;95.40;;;;;;5073875;28;20474;-65
2021/09/06 11:34:44;;;;;;;8.53;7.70;;;22.30;95.40;;;;;;5073358;28;20478;-65
2021/09/06 11:37:13;;;;;;;7.80;7.10;;;22.30;94.60;;;;;;5073943;28;20523;-65
2021/09/06 11:39:44;;;;;;;8.80;7.50;;;22.20;94.30;;;;;;5073200;28;21049;-65
2021/09/06 11:42:11;;;;;;;8.03;7.33;;;22.30;94.20;;;;;;5073558;28;21035;-65
2021/09/06 11:44:38;;;;;;;6.97;6.27;;;22.30;94.60;;;;;;5073477;28;20800;-65
2021/09/06 11:47:06;;;;;;;7.00;6.40;;;22.40;94.90;;;;;;5073578;28;20468;-63
2021/09/06 11:49:33;;;;;;;8.83;7.73;;;22.40;95.00;;;;;;5072996;28;20485;-64
2021/09/06 11:52:10;;;;;;;7.40;6.70;;;22.40;94.80;;;;;;5073540;28;20949;-64
2021/09/06 11:54:46;;;;;;;16.33;8.47;;;22.50;94.90;;;;;;5072861;28;20800;-64
2021/09/06 11:57:24;;;;;;;12.90;7.40;;;22.50;94.50;;;;;;5073428;28;20812;-64
2021/09/06 11:59:52;;;;;;;9.90;7.70;;;22.50;94.70;;;;;;5072862;28;20470;-64
2021/09/06 12:02:19;;;;;;;8.53;7.63;;;22.60;94.90;;;;;;5073383;28;20463;-64
2021/09/06 12:04:46;;;;;;;8.10;7.40;;;22.60;95.00;;;;;;5072849;28;20501;-64
2021/09/06 12:07:17;;;;;;;8.00;7.30;;;22.60;95.10;;;;;;5072981;28;20971;-64
2021/09/06 12:09:45;;;;;;;7.77;6.97;;;22.70;95.30;;;;;;5072876;28;20553;-64
2021/09/06 12:12:20;;;;;;;8.50;7.80;;;22.70;95.30;;;;;;5073124;28;20467;-64
2021/09/06 12:14:48;;;;;;;7.47;6.87;;;22.70;95.40;;;;;;5072497;28;20472;-64
2021/09/06 12:17:16;;;;;;;6.83;6.30;;;22.70;95.00;;;;;;5073176;28;20473;-64
2021/09/06 12:19:45;;;;;;;8.23;7.43;;;22.60;94.70;;;;;;5072720;28;20488;-64
2021/09/06 12:22:17;;;;;;;8.40;7.70;;;22.60;94.20;;;;;;5072867;28;20463;-64
2021/09/06 12:24:46;;;;;;;8.07;7.27;;;22.60;93.80;;;;;;5072422;28;20497;-64
2021/09/06 12:27:15;;;;;;;7.80;7.00;;;22.60;94.10;;;;;;5072928;28;20467;-64
2021/09/06 12:29:43;;;;;;;8.37;7.57;;;22.60;93.90;;;;;;5072406;28;20476;-64
2021/09/06 12:32:19;;;;;;;8.93;7.97;;;22.60;93.70;;;;;;5072630;28;20458;-64
2021/09/06 12:34:46;;;;;;;8.00;7.20;;;22.60;93.90;;;;;;5072422;28;20470;-64
2021/09/06 12:37:15;;;;;;;7.70;6.93;;;22.60;94.10;;;;;;5072685;28;20477;-64
2021/09/06 12:39:43;;;;;;;8.20;7.30;;;22.50;93.70;;;;;;5072210;28;20474;-64
2021/09/06 12:42:11;;;;;;;7.70;7.00;;;22.60;93.80;;;;;;5072796;28;20464;-63
2021/09/06 12:44:38;;;;;;;8.10;7.30;;;22.60;94.00;;;;;;5072421;28;20466;-65